sensor_id;sensor_type;location;lat;lon;timestamp;P1;durP1;ratioP1;P2;durP2;ratioP2
15555;SDS011;7879;48.660;9.116;2022-12-20T00:00:50;0.30;;;0.30;;
15555;SDS011;7879;48.660;9.116;2022-12-20T00:03:17;0.20;;;0.20;;
15555;SDS011;7879;48.660;9.116;2022-12-20T00:05:43;0.20;;;0.20;;
15555;SDS011;7879;48.660;9.116;2022-12-20T00:08:11;0.20;;;0.20;;
15555;SDS011;7879;48.660;9.116;2022-12-20T00:10:38;0.30;;;0.30;;
15555;SDS011;7879;48.660;9.116;2022-12-20T00:13:07;0.30;;;0.30;;
15555;SDS011;7879;48.660;9.116;2022-12-20T00:15:34;0.30;;;0.30;;
15555;SDS011;7879;48.660;9.116;2022-12-20T00:18:01;0.30;;;0.30;;
15555;SDS011;7879;48.660;9.116;2022-12-20T00:20:28;0.30;;;0.30;;
15555;SDS011;7879;48.660;9.116;2022-12-20T00:22:55;0.30;;;0.30;;
15555;SDS011;7879;48.660;9.116;2022-12-20T00:25:22;0.30;;;0.30;;
15555;SDS011;7879;48.660;9.116;2022-12-20T00:27:49;0.30;;;0.30;;
15555;SDS011;7879;48.660;9.116;2022-12-20T00:30:16;0.20;;;0.20;;
15555;SDS011;7879;48.660;9.116;2022-12-20T00:32:43;0.20;;;0.20;;
15555;SDS011;7879;48.660;9.116;2022-12-20T00:35:11;0.30;;;0.30;;
15555;SDS011;7879;48.660;9.116;2022-12-20T00:37:38;0.30;;;0.30;;
15555;SDS011;7879;48.660;9.116;2022-12-20T00:40:05;0.30;;;0.30;;
15555;SDS011;7879;48.660;9.116;2022-12-20T00:42:33;0.30;;;0.30;;
15555;SDS011;7879;48.660;9.116;2022-12-20T00:44:59;0.30;;;0.30;;
15555;SDS011;7879;48.660;9.116;2022-12-20T00:47:26;0.30;;;0.30;;
15555;SDS011;7879;48.660;9.116;2022-12-20T00:49:53;0.30;;;0.30;;
15555;SDS011;7879;48.660;9.116;2022-12-20T00:52:20;0.30;;;0.30;;
15555;SDS011;7879;48.660;9.116;2022-12-20T00:54:47;0.30;;;0.30;;
15555;SDS011;7879;48.660;9.116;2022-12-20T00:57:14;0.30;;;0.30;;
15555;SDS011;7879;48.660;9.116;2022-12-20T00:59:41;0.30;;;0.30;;
15555;SDS011;7879;48.660;9.116;2022-12-20T01:02:07;0.30;;;0.30;;
15555;SDS011;7879;48.660;9.116;2022-12-20T01:04:34;0.30;;;0.30;;
15555;SDS011;7879;48.660;9.116;2022-12-20T01:07:01;0.30;;;0.30;;
15555;SDS011;7879;48.660;9.116;2022-12-20T01:09:28;0.30;;;0.30;;
15555;SDS011;7879;48.660;9.116;2022-12-20T01:11:55;0.30;;;0.30;;
15555;SDS011;7879;48.660;9.116;2022-12-20T01:14:21;0.30;;;0.30;;
15555;SDS011;7879;48.660;9.116;2022-12-20T01:16:48;0.30;;;0.30;;
15555;SDS011;7879;48.660;9.116;2022-12-20T01:19:16;0.33;;;0.33;;
15555;SDS011;7879;48.660;9.116;2022-12-20T01:21:43;0.30;;;0.30;;
15555;SDS011;7879;48.660;9.116;2022-12-20T01:24:14;0.40;;;0.40;;
15555;SDS011;7879;48.660;9.116;2022-12-20T01:26:45;0.30;;;0.30;;
15555;SDS011;7879;48.660;9.116;2022-12-20T01:29:13;0.30;;;0.30;;
15555;SDS011;7879;48.660;9.116;2022-12-20T01:31:40;0.30;;;0.30;;
15555;SDS011;7879;48.660;9.116;2022-12-20T01:34:08;0.30;;;0.30;;
15555;SDS011;7879;48.660;9.116;2022-12-20T01:36:35;0.30;;;0.30;;
15555;SDS011;7879;48.660;9.116;2022-12-20T01:39:06;0.30;;;0.30;;
15555;SDS011;7879;48.660;9.116;2022-12-20T01:41:39;0.30;;;0.30;;
15555;SDS011;7879;48.660;9.116;2022-12-20T01:46:43;0.30;;;0.30;;
15555;SDS011;7879;48.660;9.116;2022-12-20T01:51:49;0.30;;;0.30;;
15555;SDS011;7879;48.660;9.116;2022-12-20T01:54:27;0.30;;;0.30;;
15555;SDS011;7879;48.660;9.116;2022-12-20T01:56:58;0.30;;;0.30;;
15555;SDS011;7879;48.660;9.116;2022-12-20T01:59:28;0.30;;;0.30;;
15555;SDS011;7879;48.660;9.116;2022-12-20T02:01:58;0.30;;;0.30;;
15555;SDS011;7879;48.660;9.116;2022-12-20T02:04:30;0.30;;;0.30;;
15555;SDS011;7879;48.660;9.116;2022-12-20T02:06:57;0.30;;;0.30;;
15555;SDS011;7879;48.660;9.116;2022-12-20T02:09:24;0.30;;;0.30;;
15555;SDS011;7879;48.660;9.116;2022-12-20T02:28:24;0.30;;;0.30;;
15555;SDS011;7879;48.660;9.116;2022-12-20T02:31:07;0.30;;;0.30;;
15555;SDS011;7879;48.660;9.116;2022-12-20T02:33:38;0.30;;;0.30;;
15555;SDS011;7879;48.660;9.116;2022-12-20T02:36:08;0.20;;;0.20;;
15555;SDS011;7879;48.660;9.116;2022-12-20T02:38:36;0.30;;;0.30;;
15555;SDS011;7879;48.660;9.116;2022-12-20T02:41:08;0.30;;;0.30;;
15555;SDS011;7879;48.660;9.116;2022-12-20T02:43:45;0.30;;;0.30;;
15555;SDS011;7879;48.660;9.116;2022-12-20T02:46:35;0.30;;;0.30;;
15555;SDS011;7879;48.660;9.116;2022-12-20T02:49:05;0.30;;;0.30;;
15555;SDS011;7879;48.660;9.116;2022-12-20T02:51:40;0.37;;;0.37;;
15555;SDS011;7879;48.660;9.116;2022-12-20T02:54:09;0.40;;;0.40;;
15555;SDS011;7879;48.660;9.116;2022-12-20T02:56:37;0.30;;;0.30;;
15555;SDS011;7879;48.660;9.116;2022-12-20T02:59:11;0.40;;;0.40;;
15555;SDS011;7879;48.660;9.116;2022-12-20T03:01:47;0.30;;;0.30;;
15555;SDS011;7879;48.660;9.116;2022-12-20T03:04:17;0.40;;;0.40;;
15555;SDS011;7879;48.660;9.116;2022-12-20T03:06:54;0.30;;;0.30;;
15555;SDS011;7879;48.660;9.116;2022-12-20T03:09:22;0.30;;;0.30;;
15555;SDS011;7879;48.660;9.116;2022-12-20T03:11:49;0.30;;;0.30;;
15555;SDS011;7879;48.660;9.116;2022-12-20T03:14:16;0.30;;;0.30;;
15555;SDS011;7879;48.660;9.116;2022-12-20T03:16:43;0.30;;;0.30;;
15555;SDS011;7879;48.660;9.116;2022-12-20T03:19:10;0.30;;;0.30;;
15555;SDS011;7879;48.660;9.116;2022-12-20T03:21:36;0.30;;;0.30;;
15555;SDS011;7879;48.660;9.116;2022-12-20T03:24:03;0.30;;;0.30;;
15555;SDS011;7879;48.660;9.116;2022-12-20T03:26:30;0.30;;;0.30;;
15555;SDS011;7879;48.660;9.116;2022-12-20T03:28:57;0.30;;;0.30;;
15555;SDS011;7879;48.660;9.116;2022-12-20T03:31:24;0.30;;;0.30;;
15555;SDS011;7879;48.660;9.116;2022-12-20T03:33:51;0.30;;;0.30;;
15555;SDS011;7879;48.660;9.116;2022-12-20T03:36:17;0.33;;;0.33;;
15555;SDS011;7879;48.660;9.116;2022-12-20T03:38:49;0.30;;;0.30;;
15555;SDS011;7879;48.660;9.116;2022-12-20T03:41:16;0.38;;;0.38;;
15555;SDS011;7879;48.660;9.116;2022-12-20T03:43:43;0.35;;;0.35;;
15555;SDS011;7879;48.660;9.116;2022-12-20T03:46:10;0.30;;;0.30;;
15555;SDS011;7879;48.660;9.116;2022-12-20T03:48:37;0.30;;;0.30;;
15555;SDS011;7879;48.660;9.116;2022-12-20T03:51:04;0.30;;;0.30;;
15555;SDS011;7879;48.660;9.116;2022-12-20T03:53:31;0.30;;;0.30;;
15555;SDS011;7879;48.660;9.116;2022-12-20T03:55:58;0.30;;;0.30;;
15555;SDS011;7879;48.660;9.116;2022-12-20T03:58:24;0.40;;;0.40;;
15555;SDS011;7879;48.660;9.116;2022-12-20T04:00:51;0.40;;;0.40;;
15555;SDS011;7879;48.660;9.116;2022-12-20T04:03:18;0.30;;;0.30;;
15555;SDS011;7879;48.660;9.116;2022-12-20T04:05:45;0.40;;;0.40;;
15555;SDS011;7879;48.660;9.116;2022-12-20T04:08:12;0.40;;;0.40;;
15555;SDS011;7879;48.660;9.116;2022-12-20T04:10:38;0.40;;;0.40;;
15555;SDS011;7879;48.660;9.116;2022-12-20T04:13:25;0.40;;;0.40;;
15555;SDS011;7879;48.660;9.116;2022-12-20T04:15:52;0.40;;;0.40;;
15555;SDS011;7879;48.660;9.116;2022-12-20T04:18:25;0.40;;;0.40;;
15555;SDS011;7879;48.660;9.116;2022-12-20T04:20:52;0.30;;;0.30;;
15555;SDS011;7879;48.660;9.116;2022-12-20T04:23:19;0.38;;;0.38;;
15555;SDS011;7879;48.660;9.116;2022-12-20T04:25:46;0.30;;;0.30;;
15555;SDS011;7879;48.660;9.116;2022-12-20T04:28:12;0.30;;;0.30;;
15555;SDS011;7879;48.660;9.116;2022-12-20T04:30:39;0.40;;;0.40;;
15555;SDS011;7879;48.660;9.116;2022-12-20T04:33:06;0.30;;;0.30;;
15555;SDS011;7879;48.660;9.116;2022-12-20T04:35:33;0.30;;;0.30;;
15555;SDS011;7879;48.660;9.116;2022-12-20T04:37:59;0.30;;;0.30;;
15555;SDS011;7879;48.660;9.116;2022-12-20T04:40:26;0.30;;;0.30;;
15555;SDS011;7879;48.660;9.116;2022-12-20T04:42:53;0.30;;;0.30;;
15555;SDS011;7879;48.660;9.116;2022-12-20T04:45:19;0.30;;;0.30;;
15555;SDS011;7879;48.660;9.116;2022-12-20T04:47:46;0.30;;;0.30;;
15555;SDS011;7879;48.660;9.116;2022-12-20T04:50:13;0.30;;;0.30;;
15555;SDS011;7879;48.660;9.116;2022-12-20T04:52:40;0.30;;;0.30;;
15555;SDS011;7879;48.660;9.116;2022-12-20T04:55:26;0.30;;;0.30;;
15555;SDS011;7879;48.660;9.116;2022-12-20T04:57:52;0.30;;;0.30;;
15555;SDS011;7879;48.660;9.116;2022-12-20T05:00:19;0.30;;;0.30;;
15555;SDS011;7879;48.660;9.116;2022-12-20T05:02:46;0.30;;;0.30;;
15555;SDS011;7879;48.660;9.116;2022-12-20T05:05:13;0.30;;;0.30;;
15555;SDS011;7879;48.660;9.116;2022-12-20T05:07:40;0.30;;;0.30;;
15555;SDS011;7879;48.660;9.116;2022-12-20T05:10:06;0.30;;;0.30;;
15555;SDS011;7879;48.660;9.116;2022-12-20T05:12:34;0.30;;;0.30;;
15555;SDS011;7879;48.660;9.116;2022-12-20T05:15:00;0.30;;;0.30;;
15555;SDS011;7879;48.660;9.116;2022-12-20T05:17:27;0.30;;;0.30;;
15555;SDS011;7879;48.660;9.116;2022-12-20T05:19:54;0.30;;;0.30;;
15555;SDS011;7879;48.660;9.116;2022-12-20T05:22:21;0.20;;;0.20;;
15555;SDS011;7879;48.660;9.116;2022-12-20T05:25:07;0.20;;;0.20;;
15555;SDS011;7879;48.660;9.116;2022-12-20T05:27:57;0.30;;;0.30;;
15555;SDS011;7879;48.660;9.116;2022-12-20T05:30:24;0.40;;;0.40;;
15555;SDS011;7879;48.660;9.116;2022-12-20T05:32:51;0.30;;;0.30;;
15555;SDS011;7879;48.660;9.116;2022-12-20T05:35:18;0.30;;;0.30;;
15555;SDS011;7879;48.660;9.116;2022-12-20T05:37:45;0.30;;;0.30;;
15555;SDS011;7879;48.660;9.116;2022-12-20T05:40:12;0.30;;;0.30;;
15555;SDS011;7879;48.660;9.116;2022-12-20T05:42:39;0.30;;;0.30;;
15555;SDS011;7879;48.660;9.116;2022-12-20T05:45:06;0.30;;;0.30;;
15555;SDS011;7879;48.660;9.116;2022-12-20T05:47:33;0.30;;;0.30;;
15555;SDS011;7879;48.660;9.116;2022-12-20T05:50:00;0.30;;;0.30;;
15555;SDS011;7879;48.660;9.116;2022-12-20T05:52:26;0.30;;;0.30;;
15555;SDS011;7879;48.660;9.116;2022-12-20T05:54:53;0.30;;;0.30;;
15555;SDS011;7879;48.660;9.116;2022-12-20T05:57:20;0.30;;;0.30;;
15555;SDS011;7879;48.660;9.116;2022-12-20T05:59:48;0.30;;;0.30;;
15555;SDS011;7879;48.660;9.116;2022-12-20T06:02:14;0.30;;;0.30;;
15555;SDS011;7879;48.660;9.116;2022-12-20T06:04:41;0.30;;;0.30;;
15555;SDS011;7879;48.660;9.116;2022-12-20T06:07:08;0.30;;;0.30;;
15555;SDS011;7879;48.660;9.116;2022-12-20T06:09:35;0.30;;;0.30;;
15555;SDS011;7879;48.660;9.116;2022-12-20T06:12:01;0.30;;;0.30;;
15555;SDS011;7879;48.660;9.116;2022-12-20T06:14:28;0.30;;;0.30;;
15555;SDS011;7879;48.660;9.116;2022-12-20T06:16:55;0.30;;;0.30;;
15555;SDS011;7879;48.660;9.116;2022-12-20T06:19:22;0.30;;;0.30;;
15555;SDS011;7879;48.660;9.116;2022-12-20T06:21:49;0.30;;;0.30;;
15555;SDS011;7879;48.660;9.116;2022-12-20T06:24:15;0.30;;;0.30;;
15555;SDS011;7879;48.660;9.116;2022-12-20T06:26:44;0.30;;;0.30;;
15555;SDS011;7879;48.660;9.116;2022-12-20T06:29:11;0.30;;;0.30;;
15555;SDS011;7879;48.660;9.116;2022-12-20T06:31:39;0.30;;;0.30;;
15555;SDS011;7879;48.660;9.116;2022-12-20T06:34:06;0.30;;;0.30;;
15555;SDS011;7879;48.660;9.116;2022-12-20T06:36:33;0.20;;;0.20;;
15555;SDS011;7879;48.660;9.116;2022-12-20T06:39:00;0.20;;;0.20;;
15555;SDS011;7879;48.660;9.116;2022-12-20T06:41:35;0.28;;;0.28;;
15555;SDS011;7879;48.660;9.116;2022-12-20T06:44:02;0.30;;;0.30;;
15555;SDS011;7879;48.660;9.116;2022-12-20T06:46:28;0.30;;;0.30;;
15555;SDS011;7879;48.660;9.116;2022-12-20T06:48:55;0.30;;;0.30;;
15555;SDS011;7879;48.660;9.116;2022-12-20T06:51:22;0.30;;;0.30;;
15555;SDS011;7879;48.660;9.116;2022-12-20T06:53:49;0.30;;;0.30;;
15555;SDS011;7879;48.660;9.116;2022-12-20T06:56:16;0.30;;;0.30;;
15555;SDS011;7879;48.660;9.116;2022-12-20T06:58:44;0.30;;;0.30;;
15555;SDS011;7879;48.660;9.116;2022-12-20T07:01:12;0.30;;;0.30;;
15555;SDS011;7879;48.660;9.116;2022-12-20T07:03:39;0.30;;;0.30;;
15555;SDS011;7879;48.660;9.116;2022-12-20T07:06:05;0.30;;;0.30;;
15555;SDS011;7879;48.660;9.116;2022-12-20T07:08:32;0.30;;;0.30;;
15555;SDS011;7879;48.660;9.116;2022-12-20T07:11:03;0.30;;;0.30;;
15555;SDS011;7879;48.660;9.116;2022-12-20T07:13:31;0.30;;;0.30;;
15555;SDS011;7879;48.660;9.116;2022-12-20T07:16:01;0.30;;;0.30;;
15555;SDS011;7879;48.660;9.116;2022-12-20T07:18:29;0.30;;;0.30;;
15555;SDS011;7879;48.660;9.116;2022-12-20T07:20:59;0.30;;;0.30;;
15555;SDS011;7879;48.660;9.116;2022-12-20T07:23:27;0.30;;;0.30;;
15555;SDS011;7879;48.660;9.116;2022-12-20T07:25:55;0.30;;;0.30;;
15555;SDS011;7879;48.660;9.116;2022-12-20T07:28:23;0.30;;;0.30;;
15555;SDS011;7879;48.660;9.116;2022-12-20T07:30:51;0.30;;;0.30;;
15555;SDS011;7879;48.660;9.116;2022-12-20T07:33:19;0.30;;;0.30;;
15555;SDS011;7879;48.660;9.116;2022-12-20T07:35:46;0.30;;;0.30;;
15555;SDS011;7879;48.660;9.116;2022-12-20T07:38:19;0.20;;;0.20;;
15555;SDS011;7879;48.660;9.116;2022-12-20T07:40:46;0.20;;;0.20;;
15555;SDS011;7879;48.660;9.116;2022-12-20T07:43:13;0.30;;;0.30;;
15555;SDS011;7879;48.660;9.116;2022-12-20T07:45:39;0.30;;;0.30;;
15555;SDS011;7879;48.660;9.116;2022-12-20T07:48:07;0.30;;;0.30;;
15555;SDS011;7879;48.660;9.116;2022-12-20T07:50:40;0.30;;;0.30;;
15555;SDS011;7879;48.660;9.116;2022-12-20T07:53:07;0.30;;;0.30;;
15555;SDS011;7879;48.660;9.116;2022-12-20T07:55:35;0.30;;;0.30;;
15555;SDS011;7879;48.660;9.116;2022-12-20T07:58:05;0.30;;;0.30;;
15555;SDS011;7879;48.660;9.116;2022-12-20T08:00:34;0.30;;;0.30;;
15555;SDS011;7879;48.660;9.116;2022-12-20T08:05:34;0.30;;;0.30;;
15555;SDS011;7879;48.660;9.116;2022-12-20T08:08:04;0.20;;;0.20;;
15555;SDS011;7879;48.660;9.116;2022-12-20T08:10:31;0.20;;;0.20;;
15555;SDS011;7879;48.660;9.116;2022-12-20T08:12:58;0.30;;;0.30;;
15555;SDS011;7879;48.660;9.116;2022-12-20T08:15:25;0.30;;;0.30;;
15555;SDS011;7879;48.660;9.116;2022-12-20T08:17:54;0.30;;;0.30;;
15555;SDS011;7879;48.660;9.116;2022-12-20T08:20:21;0.30;;;0.30;;
15555;SDS011;7879;48.660;9.116;2022-12-20T08:22:47;0.30;;;0.30;;
15555;SDS011;7879;48.660;9.116;2022-12-20T08:25:14;0.30;;;0.30;;
15555;SDS011;7879;48.660;9.116;2022-12-20T08:27:41;0.30;;;0.30;;
15555;SDS011;7879;48.660;9.116;2022-12-20T08:30:08;0.30;;;0.30;;
15555;SDS011;7879;48.660;9.116;2022-12-20T08:32:36;0.20;;;0.20;;
15555;SDS011;7879;48.660;9.116;2022-12-20T08:35:03;0.30;;;0.30;;
15555;SDS011;7879;48.660;9.116;2022-12-20T08:37:31;0.30;;;0.30;;
15555;SDS011;7879;48.660;9.116;2022-12-20T08:39:58;0.30;;;0.30;;
15555;SDS011;7879;48.660;9.116;2022-12-20T08:42:26;0.20;;;0.20;;
15555;SDS011;7879;48.660;9.116;2022-12-20T08:44:54;0.20;;;0.20;;
15555;SDS011;7879;48.660;9.116;2022-12-20T08:47:21;0.20;;;0.20;;
15555;SDS011;7879;48.660;9.116;2022-12-20T08:49:47;0.20;;;0.20;;
15555;SDS011;7879;48.660;9.116;2022-12-20T08:52:14;0.30;;;0.30;;
15555;SDS011;7879;48.660;9.116;2022-12-20T08:54:41;0.30;;;0.30;;
15555;SDS011;7879;48.660;9.116;2022-12-20T08:57:07;0.30;;;0.30;;
15555;SDS011;7879;48.660;9.116;2022-12-20T08:59:34;0.20;;;0.20;;
15555;SDS011;7879;48.660;9.116;2022-12-20T09:02:01;0.20;;;0.20;;
15555;SDS011;7879;48.660;9.116;2022-12-20T09:04:28;0.30;;;0.30;;
15555;SDS011;7879;48.660;9.116;2022-12-20T09:06:55;0.30;;;0.30;;
15555;SDS011;7879;48.660;9.116;2022-12-20T09:09:21;0.20;;;0.20;;
15555;SDS011;7879;48.660;9.116;2022-12-20T09:11:48;0.20;;;0.20;;
15555;SDS011;7879;48.660;9.116;2022-12-20T09:14:15;0.25;;;0.25;;
15555;SDS011;7879;48.660;9.116;2022-12-20T09:16:43;0.30;;;0.30;;
15555;SDS011;7879;48.660;9.116;2022-12-20T09:19:10;0.20;;;0.20;;
15555;SDS011;7879;48.660;9.116;2022-12-20T09:21:38;0.20;;;0.20;;
15555;SDS011;7879;48.660;9.116;2022-12-20T09:24:05;0.20;;;0.20;;
15555;SDS011;7879;48.660;9.116;2022-12-20T09:26:33;0.30;;;0.30;;
15555;SDS011;7879;48.660;9.116;2022-12-20T09:29:00;0.20;;;0.20;;
15555;SDS011;7879;48.660;9.116;2022-12-20T09:31:27;0.20;;;0.20;;
15555;SDS011;7879;48.660;9.116;2022-12-20T09:33:55;0.30;;;0.30;;
15555;SDS011;7879;48.660;9.116;2022-12-20T09:36:26;0.20;;;0.20;;
15555;SDS011;7879;48.660;9.116;2022-12-20T09:38:54;0.20;;;0.20;;
15555;SDS011;7879;48.660;9.116;2022-12-20T09:43:51;0.25;;;0.25;;
15555;SDS011;7879;48.660;9.116;2022-12-20T09:46:18;0.20;;;0.20;;
15555;SDS011;7879;48.660;9.116;2022-12-20T09:48:46;0.20;;;0.20;;
15555;SDS011;7879;48.660;9.116;2022-12-20T09:57:22;0.20;;;0.20;;
15555;SDS011;7879;48.660;9.116;2022-12-20T09:59:57;0.22;;;0.22;;
15555;SDS011;7879;48.660;9.116;2022-12-20T10:02:24;0.10;;;0.10;;
15555;SDS011;7879;48.660;9.116;2022-12-20T10:05:24;0.20;;;0.20;;
15555;SDS011;7879;48.660;9.116;2022-12-20T10:08:21;0.20;;;0.20;;
15555;SDS011;7879;48.660;9.116;2022-12-20T10:10:53;0.20;;;0.20;;
15555;SDS011;7879;48.660;9.116;2022-12-20T10:19:19;0.20;;;0.20;;
15555;SDS011;7879;48.660;9.116;2022-12-20T10:22:02;0.10;;;0.10;;
15555;SDS011;7879;48.660;9.116;2022-12-20T10:24:37;0.20;;;0.20;;
15555;SDS011;7879;48.660;9.116;2022-12-20T10:27:24;0.10;;;0.10;;
15555;SDS011;7879;48.660;9.116;2022-12-20T10:29:51;0.20;;;0.20;;
15555;SDS011;7879;48.660;9.116;2022-12-20T10:32:21;0.10;;;0.10;;
15555;SDS011;7879;48.660;9.116;2022-12-20T10:37:25;0.20;;;0.20;;
15555;SDS011;7879;48.660;9.116;2022-12-20T10:39:51;0.30;;;0.30;;
15555;SDS011;7879;48.660;9.116;2022-12-20T10:42:24;0.20;;;0.20;;
15555;SDS011;7879;48.660;9.116;2022-12-20T10:44:52;0.13;;;0.13;;
15555;SDS011;7879;48.660;9.116;2022-12-20T10:47:39;0.30;;;0.30;;
15555;SDS011;7879;48.660;9.116;2022-12-20T10:52:41;0.30;;;0.30;;
15555;SDS011;7879;48.660;9.116;2022-12-20T10:58:11;0.30;;;0.30;;
15555;SDS011;7879;48.660;9.116;2022-12-20T11:00:39;0.20;;;0.20;;
15555;SDS011;7879;48.660;9.116;2022-12-20T11:03:20;0.20;;;0.20;;
15555;SDS011;7879;48.660;9.116;2022-12-20T11:05:55;0.20;;;0.20;;
15555;SDS011;7879;48.660;9.116;2022-12-20T11:08:25;0.10;;;0.10;;
15555;SDS011;7879;48.660;9.116;2022-12-20T11:13:44;0.20;;;0.20;;
15555;SDS011;7879;48.660;9.116;2022-12-20T11:27:15;0.28;;;0.28;;
15555;SDS011;7879;48.660;9.116;2022-12-20T11:33:05;0.20;;;0.20;;
15555;SDS011;7879;48.660;9.116;2022-12-20T11:36:00;0.30;;;0.30;;
15555;SDS011;7879;48.660;9.116;2022-12-20T11:52:36;0.10;;;0.10;;
15555;SDS011;7879;48.660;9.116;2022-12-20T11:57:42;0.10;;;0.10;;
15555;SDS011;7879;48.660;9.116;2022-12-20T12:00:40;0.20;;;0.20;;
15555;SDS011;7879;48.660;9.116;2022-12-20T12:03:11;0.20;;;0.20;;
15555;SDS011;7879;48.660;9.116;2022-12-20T12:05:50;0.20;;;0.20;;
15555;SDS011;7879;48.660;9.116;2022-12-20T12:08:32;0.10;;;0.10;;
15555;SDS011;7879;48.660;9.116;2022-12-20T12:11:31;0.20;;;0.20;;
15555;SDS011;7879;48.660;9.116;2022-12-20T12:17:20;0.15;;;0.15;;
15555;SDS011;7879;48.660;9.116;2022-12-20T12:20:19;0.20;;;0.20;;
15555;SDS011;7879;48.660;9.116;2022-12-20T12:22:52;0.20;;;0.20;;
15555;SDS011;7879;48.660;9.116;2022-12-20T12:25:36;0.20;;;0.20;;
15555;SDS011;7879;48.660;9.116;2022-12-20T12:28:04;0.20;;;0.20;;
15555;SDS011;7879;48.660;9.116;2022-12-20T12:30:38;0.20;;;0.20;;
15555;SDS011;7879;48.660;9.116;2022-12-20T12:33:14;0.20;;;0.20;;
15555;SDS011;7879;48.660;9.116;2022-12-20T12:38:43;0.20;;;0.20;;
15555;SDS011;7879;48.660;9.116;2022-12-20T12:46:46;0.30;;;0.30;;
15555;SDS011;7879;48.660;9.116;2022-12-20T12:49:21;0.20;;;0.20;;
15555;SDS011;7879;48.660;9.116;2022-12-20T12:51:52;0.20;;;0.20;;
15555;SDS011;7879;48.660;9.116;2022-12-20T12:54:27;0.20;;;0.20;;
15555;SDS011;7879;48.660;9.116;2022-12-20T12:57:15;0.10;;;0.10;;
15555;SDS011;7879;48.660;9.116;2022-12-20T12:59:47;0.20;;;0.20;;
15555;SDS011;7879;48.660;9.116;2022-12-20T13:02:53;0.20;;;0.20;;
15555;SDS011;7879;48.660;9.116;2022-12-20T13:07:51;0.10;;;0.10;;
15555;SDS011;7879;48.660;9.116;2022-12-20T13:13:13;0.15;;;0.15;;
15555;SDS011;7879;48.660;9.116;2022-12-20T13:15:48;0.20;;;0.20;;
15555;SDS011;7879;48.660;9.116;2022-12-20T13:18:20;0.10;;;0.10;;
15555;SDS011;7879;48.660;9.116;2022-12-20T13:27:20;0.10;;;0.10;;
15555;SDS011;7879;48.660;9.116;2022-12-20T13:37:57;0.20;;;0.20;;
15555;SDS011;7879;48.660;9.116;2022-12-20T13:40:47;0.20;;;0.20;;
15555;SDS011;7879;48.660;9.116;2022-12-20T13:43:29;0.20;;;0.20;;
15555;SDS011;7879;48.660;9.116;2022-12-20T13:46:23;0.20;;;0.20;;
15555;SDS011;7879;48.660;9.116;2022-12-20T13:49:03;0.20;;;0.20;;
15555;SDS011;7879;48.660;9.116;2022-12-20T13:51:35;0.20;;;0.20;;
15555;SDS011;7879;48.660;9.116;2022-12-20T13:54:07;0.30;;;0.30;;
15555;SDS011;7879;48.660;9.116;2022-12-20T13:56:44;0.20;;;0.20;;
15555;SDS011;7879;48.660;9.116;2022-12-20T13:59:14;0.20;;;0.20;;
15555;SDS011;7879;48.660;9.116;2022-12-20T14:01:57;0.20;;;0.20;;
15555;SDS011;7879;48.660;9.116;2022-12-20T14:04:26;0.20;;;0.20;;
15555;SDS011;7879;48.660;9.116;2022-12-20T14:07:07;0.20;;;0.20;;
15555;SDS011;7879;48.660;9.116;2022-12-20T14:09:38;0.20;;;0.20;;
15555;SDS011;7879;48.660;9.116;2022-12-20T14:12:15;0.20;;;0.20;;
15555;SDS011;7879;48.660;9.116;2022-12-20T14:14:53;0.20;;;0.20;;
15555;SDS011;7879;48.660;9.116;2022-12-20T14:17:24;0.20;;;0.20;;
15555;SDS011;7879;48.660;9.116;2022-12-20T14:20:03;0.30;;;0.30;;
15555;SDS011;7879;48.660;9.116;2022-12-20T14:22:34;0.20;;;0.20;;
15555;SDS011;7879;48.660;9.116;2022-12-20T14:25:02;0.20;;;0.20;;
15555;SDS011;7879;48.660;9.116;2022-12-20T14:27:33;0.20;;;0.20;;
15555;SDS011;7879;48.660;9.116;2022-12-20T14:30:03;0.20;;;0.20;;
15555;SDS011;7879;48.660;9.116;2022-12-20T14:32:31;0.28;;;0.28;;
15555;SDS011;7879;48.660;9.116;2022-12-20T14:34:58;0.20;;;0.20;;
15555;SDS011;7879;48.660;9.116;2022-12-20T14:37:26;0.20;;;0.20;;
15555;SDS011;7879;48.660;9.116;2022-12-20T14:42:37;0.20;;;0.20;;
15555;SDS011;7879;48.660;9.116;2022-12-20T14:45:16;0.20;;;0.20;;
15555;SDS011;7879;48.660;9.116;2022-12-20T14:50:28;0.17;;;0.17;;
15555;SDS011;7879;48.660;9.116;2022-12-20T14:52:57;0.20;;;0.20;;
15555;SDS011;7879;48.660;9.116;2022-12-20T14:55:35;0.30;;;0.30;;
15555;SDS011;7879;48.660;9.116;2022-12-20T14:58:05;0.20;;;0.20;;
15555;SDS011;7879;48.660;9.116;2022-12-20T15:03:30;0.30;;;0.30;;
15555;SDS011;7879;48.660;9.116;2022-12-20T15:05:57;0.20;;;0.20;;
15555;SDS011;7879;48.660;9.116;2022-12-20T15:08:27;0.20;;;0.20;;
15555;SDS011;7879;48.660;9.116;2022-12-20T15:13:29;0.30;;;0.30;;
15555;SDS011;7879;48.660;9.116;2022-12-20T15:16:02;0.20;;;0.20;;
15555;SDS011;7879;48.660;9.116;2022-12-20T15:18:52;0.20;;;0.20;;
15555;SDS011;7879;48.660;9.116;2022-12-20T15:23:57;0.20;;;0.20;;
15555;SDS011;7879;48.660;9.116;2022-12-20T15:26:26;0.17;;;0.17;;
15555;SDS011;7879;48.660;9.116;2022-12-20T15:28:54;0.30;;;0.30;;
15555;SDS011;7879;48.660;9.116;2022-12-20T15:31:21;0.30;;;0.30;;
15555;SDS011;7879;48.660;9.116;2022-12-20T15:33:58;0.20;;;0.20;;
15555;SDS011;7879;48.660;9.116;2022-12-20T15:36:28;0.20;;;0.20;;
15555;SDS011;7879;48.660;9.116;2022-12-20T15:38:59;0.20;;;0.20;;
15555;SDS011;7879;48.660;9.116;2022-12-20T15:41:47;0.30;;;0.30;;
15555;SDS011;7879;48.660;9.116;2022-12-20T15:44:16;0.20;;;0.20;;
15555;SDS011;7879;48.660;9.116;2022-12-20T15:46:48;0.20;;;0.20;;
15555;SDS011;7879;48.660;9.116;2022-12-20T15:49:17;0.30;;;0.30;;
15555;SDS011;7879;48.660;9.116;2022-12-20T15:51:50;0.30;;;0.30;;
15555;SDS011;7879;48.660;9.116;2022-12-20T15:54:25;0.20;;;0.20;;
15555;SDS011;7879;48.660;9.116;2022-12-20T15:56:55;0.20;;;0.20;;
15555;SDS011;7879;48.660;9.116;2022-12-20T15:59:24;0.20;;;0.20;;
15555;SDS011;7879;48.660;9.116;2022-12-20T16:03:42;0.30;;;0.30;;
15555;SDS011;7879;48.660;9.116;2022-12-20T16:06:10;0.20;;;0.20;;
15555;SDS011;7879;48.660;9.116;2022-12-20T16:08:40;0.13;;;0.13;;
15555;SDS011;7879;48.660;9.116;2022-12-20T16:11:23;0.25;;;0.25;;
15555;SDS011;7879;48.660;9.116;2022-12-20T16:13:56;0.22;;;0.22;;
15555;SDS011;7879;48.660;9.116;2022-12-20T16:16:28;0.20;;;0.20;;
15555;SDS011;7879;48.660;9.116;2022-12-20T16:18:57;0.20;;;0.20;;
15555;SDS011;7879;48.660;9.116;2022-12-20T16:21:28;0.22;;;0.22;;
15555;SDS011;7879;48.660;9.116;2022-12-20T16:23:57;0.30;;;0.30;;
15555;SDS011;7879;48.660;9.116;2022-12-20T16:26:25;0.30;;;0.30;;
15555;SDS011;7879;48.660;9.116;2022-12-20T16:28:52;0.20;;;0.20;;
15555;SDS011;7879;48.660;9.116;2022-12-20T16:31:24;0.20;;;0.20;;
15555;SDS011;7879;48.660;9.116;2022-12-20T16:33:54;0.30;;;0.30;;
15555;SDS011;7879;48.660;9.116;2022-12-20T16:36:22;0.30;;;0.30;;
15555;SDS011;7879;48.660;9.116;2022-12-20T16:38:49;0.30;;;0.30;;
15555;SDS011;7879;48.660;9.116;2022-12-20T16:41:17;0.20;;;0.20;;
15555;SDS011;7879;48.660;9.116;2022-12-20T16:43:55;0.20;;;0.20;;
15555;SDS011;7879;48.660;9.116;2022-12-20T16:46:25;0.22;;;0.22;;
15555;SDS011;7879;48.660;9.116;2022-12-20T16:48:54;0.30;;;0.30;;
15555;SDS011;7879;48.660;9.116;2022-12-20T16:53:53;0.20;;;0.20;;
15555;SDS011;7879;48.660;9.116;2022-12-20T16:56:45;0.20;;;0.20;;
15555;SDS011;7879;48.660;9.116;2022-12-20T16:59:13;0.30;;;0.30;;
15555;SDS011;7879;48.660;9.116;2022-12-20T17:01:47;0.30;;;0.30;;
15555;SDS011;7879;48.660;9.116;2022-12-20T17:04:16;0.20;;;0.20;;
15555;SDS011;7879;48.660;9.116;2022-12-20T17:06:44;0.20;;;0.20;;
15555;SDS011;7879;48.660;9.116;2022-12-20T17:09:12;0.25;;;0.25;;
15555;SDS011;7879;48.660;9.116;2022-12-20T17:11:57;0.30;;;0.30;;
15555;SDS011;7879;48.660;9.116;2022-12-20T17:14:24;0.30;;;0.30;;
15555;SDS011;7879;48.660;9.116;2022-12-20T17:16:50;0.20;;;0.20;;
15555;SDS011;7879;48.660;9.116;2022-12-20T17:19:17;0.20;;;0.20;;
15555;SDS011;7879;48.660;9.116;2022-12-20T17:21:45;0.20;;;0.20;;
15555;SDS011;7879;48.660;9.116;2022-12-20T17:24:30;0.30;;;0.30;;
15555;SDS011;7879;48.660;9.116;2022-12-20T17:26:57;0.30;;;0.30;;
15555;SDS011;7879;48.660;9.116;2022-12-20T17:29:25;0.20;;;0.20;;